Time;durP1;ratioP1;P1;durP2;ratioP2;P2;SDS_P1;SDS_P2;PMS_P1;PMS_P2;Temp;Humidity;BMP_temperature;BMP_pressure;BME280_temperature;BME280_humidity;BME280_pressure;Samples;Min_cycle;Max_cycle;Signal;HPM_P1;HPM_P2
2024/01/09 00:01:10;;;;;;;37.50;15.00;;;;;;;-11.24;75.49;102337.77;130161;1260;114873;-64
2024/01/09 00:04:17;;;;;;;38.60;18.10;;;;;;;-11.24;75.58;102340.16;130297;1260;128954;-64
2024/01/09 00:07:19;;;;;;;49.50;21.40;;;;;;;-11.26;75.64;102346.08;130301;1257;114724;-64
2024/01/09 00:10:21;;;;;;;41.80;18.30;;;;;;;-11.27;75.60;102343.42;130289;1267;114776;-64
2024/01/09 00:13:23;;;;;;;46.40;21.20;;;;;;;-11.29;75.59;102337.41;129879;1264;114867;-64
2024/01/09 00:16:25;;;;;;;43.90;19.50;;;;;;;-11.29;75.89;102338.76;129854;1261;114773;-64
2024/01/09 00:19:27;;;;;;;47.20;20.90;;;;;;;-11.32;76.06;102339.46;130223;1255;114739;-64
2024/01/09 00:22:29;;;;;;;41.00;20.70;;;;;;;-11.33;75.99;102339.39;130173;1268;114761;-64
2024/01/09 00:25:31;;;;;;;49.10;20.30;;;;;;;-11.32;76.01;102341.13;130126;1260;115145;-64
2024/01/09 00:28:33;;;;;;;28.90;16.40;;;;;;;-11.34;75.81;102334.34;130219;1260;114730;-64
2024/01/09 00:31:35;;;;;;;47.70;20.70;;;;;;;-11.34;75.67;102335.70;130189;1277;114735;-64
2024/01/09 00:34:37;;;;;;;43.80;18.90;;;;;;;-11.34;75.68;102334.44;129862;1270;115225;-64
2024/01/09 00:37:39;;;;;;;53.30;22.10;;;;;;;-11.36;76.08;102332.44;129949;1259;115230;-63
2024/01/09 00:40:41;;;;;;;50.90;19.80;;;;;;;-11.37;75.89;102338.76;130026;1258;114911;-64
2024/01/09 00:43:43;;;;;;;44.90;21.50;;;;;;;-11.37;75.67;102334.75;130013;1273;114772;-63
2024/01/09 00:46:45;;;;;;;46.50;19.90;;;;;;;-11.36;75.86;102337.56;130265;1254;114722;-64
2024/01/09 00:49:47;;;;;;;59.00;21.00;;;;;;;-11.36;75.95;102336.71;130256;1258;128991;-64
2024/01/09 00:52:50;;;;;;;46.20;18.90;;;;;;;-11.35;75.86;102338.73;129923;1276;114740;-64
2024/01/09 00:55:52;;;;;;;59.80;22.00;;;;;;;-11.35;75.75;102339.06;130051;1257;116043;-64
2024/01/09 00:58:54;;;;;;;52.50;20.60;;;;;;;-11.34;75.80;102342.77;129773;1264;114820;-64
2024/01/09 01:01:56;;;;;;;52.20;23.10;;;;;;;-11.34;75.88;102342.20;130231;1258;114831;-64
2024/01/09 01:04:58;;;;;;;47.40;22.30;;;;;;;-11.35;75.76;102342.02;129999;1267;115007;-64
2024/01/09 01:08:00;;;;;;;52.60;21.80;;;;;;;-11.35;75.67;102343.36;129587;1254;115161;-64
2024/01/09 01:11:05;;;;;;;50.00;21.50;;;;;;;-11.37;75.29;102342.84;129933;1268;114712;-64
2024/01/09 01:14:07;;;;;;;52.40;21.50;;;;;;;-11.40;75.59;102344.35;129918;1259;114725;-64
2024/01/09 01:17:09;;;;;;;50.30;21.80;;;;;;;-11.42;75.16;102345.05;129892;1260;115292;-64
2024/01/09 01:20:11;;;;;;;56.40;22.10;;;;;;;-11.47;75.30;102342.54;129995;1260;114834;-64
2024/01/09 01:23:14;;;;;;;60.20;23.00;;;;;;;-11.49;75.57;102342.35;129608;1261;115010;-64
2024/01/09 01:26:16;;;;;;;49.40;22.30;;;;;;;-11.52;75.09;102341.27;129954;1270;115369;-64
2024/01/09 01:29:18;;;;;;;49.10;21.80;;;;;;;-11.55;75.15;102345.50;130252;1254;114710;-64
2024/01/09 01:32:20;;;;;;;58.50;22.10;;;;;;;-11.58;75.21;102349.45;130179;1254;114709;-64
2024/01/09 01:35:23;;;;;;;57.20;24.30;;;;;;;-11.61;75.22;102353.22;131214;1252;114726;-60
2024/01/09 01:38:25;;;;;;;51.00;21.00;;;;;;;-11.64;75.05;102354.52;130069;1259;114641;-63
2024/01/09 01:41:27;;;;;;;51.60;23.80;;;;;;;-11.67;74.99;102356.73;130075;1259;114793;-62
2024/01/09 01:44:30;;;;;;;53.80;22.90;;;;;;;-11.70;74.89;102358.10;129980;1253;114725;-61
2024/01/09 01:47:32;;;;;;;50.20;23.20;;;;;;;-11.72;75.02;102357.38;130005;1253;114717;-61
2024/01/09 01:50:35;;;;;;;47.30;23.30;;;;;;;-11.76;74.95;102353.32;129812;1253;114803;-63
2024/01/09 01:53:37;;;;;;;56.60;24.20;;;;;;;-11.79;75.00;102354.11;129970;1259;115182;-63
2024/01/09 01:56:41;;;;;;;60.00;24.70;;;;;;;-11.81;75.01;102357.55;129948;1276;114827;-62
2024/01/09 01:59:45;;;;;;;56.20;24.50;;;;;;;-11.84;75.01;102358.90;130021;1258;114722;-62
2024/01/09 02:02:50;;;;;;;47.40;21.90;;;;;;;-11.87;74.92;102365.04;129914;1260;114754;-62
2024/01/09 02:05:53;;;;;;;57.10;22.70;;;;;;;-11.91;75.13;102365.48;129501;1253;128459;-63
2024/01/09 02:08:55;;;;;;;57.80;24.90;;;;;;;-11.93;75.05;102368.26;129922;1253;114720;-62
2024/01/09 02:11:58;;;;;;;56.90;24.10;;;;;;;-11.96;74.98;102373.17;130007;1257;115197;-62
2024/01/09 02:15:00;;;;;;;50.50;23.00;;;;;;;-11.99;75.02;102376.08;130118;1272;114713;-62
2024/01/09 02:18:03;;;;;;;61.70;24.10;;;;;;;-12.01;75.26;102376.16;129929;1254;114835;-62
2024/01/09 02:21:05;;;;;;;50.90;22.40;;;;;;;-12.00;75.50;102378.08;129904;1259;114695;-62
2024/01/09 02:24:07;;;;;;;57.50;23.70;;;;;;;-12.00;75.61;102381.20;129868;1276;114832;-62
2024/01/09 02:27:31;;;;;;;47.40;23.30;;;;;;;-12.00;75.70;102377.27;129939;1255;114757;-61
2024/01/09 02:30:33;;;;;;;52.50;21.00;;;;;;;-12.01;75.70;102379.23;129856;1254;115341;-63
2024/01/09 02:33:37;;;;;;;46.40;20.60;;;;;;;-12.03;75.87;102379.08;130003;1257;114723;-63
2024/01/09 02:36:39;;;;;;;49.60;22.10;;;;;;;-12.02;75.94;102381.86;129920;1259;115115;-62
2024/01/09 02:39:41;;;;;;;40.30;18.90;;;;;;;-12.02;76.10;102384.17;130031;1268;114809;-63
2024/01/09 02:42:43;;;;;;;38.70;18.30;;;;;;;-12.01;76.01;102384.70;129997;1269;114721;-62
2024/01/09 02:45:45;;;;;;;46.70;20.30;;;;;;;-12.00;76.42;102382.04;129765;1275;114892;-62
2024/01/09 02:48:48;;;;;;;48.40;20.70;;;;;;;-12.00;76.10;102384.95;130043;1257;114764;-62
2024/01/09 02:51:50;;;;;;;46.00;20.90;;;;;;;-11.99;76.22;102389.88;129987;1258;114732;-62
2024/01/09 02:54:52;;;;;;;54.70;22.10;;;;;;;-11.96;76.24;102383.84;129824;1258;114866;-61
2024/01/09 02:57:54;;;;;;;54.40;21.00;;;;;;;-11.95;76.20;102385.85;129987;1258;114722;-62
2024/01/09 03:00:56;;;;;;;52.50;21.10;;;;;;;-11.93;75.96;102382.02;130052;1254;114809;-62
2024/01/09 03:03:58;;;;;;;48.40;20.40;;;;;;;-11.93;76.17;102381.35;129893;1253;114699;-63
2024/01/09 03:07:00;;;;;;;49.00;21.70;;;;;;;-11.94;75.94;102375.79;129982;1258;114747;-62
2024/01/09 03:10:03;;;;;;;50.10;19.40;;;;;;;-11.94;75.87;102374.73;130085;1259;114797;-62
2024/01/09 03:13:05;;;;;;;44.40;20.60;;;;;;;-11.94;75.78;102379.20;129908;1272;114806;-62
2024/01/09 03:16:12;;;;;;;47.00;19.70;;;;;;;-11.95;75.84;102379.65;129819;1258;114867;-62
2024/01/09 03:19:15;;;;;;;44.40;19.30;;;;;;;-11.97;75.81;102377.27;129642;1253;114899;-62
2024/01/09 03:22:17;;;;;;;45.90;20.20;;;;;;;-11.98;75.74;102380.30;129941;1253;114738;-64
2024/01/09 03:25:19;;;;;;;45.10;20.00;;;;;;;-11.99;76.07;102378.30;129773;1259;114654;-63
2024/01/09 03:28:21;;;;;;;52.40;22.10;;;;;;;-12.01;75.81;102372.69;129883;1259;114857;-63
2024/01/09 03:31:24;;;;;;;49.00;20.70;;;;;;;-12.00;76.11;102372.73;129593;1254;114927;-61
2024/01/09 03:34:26;;;;;;;39.90;18.60;;;;;;;-12.02;76.06;102367.30;130021;1258;114705;-63
2024/01/09 03:37:28;;;;;;;43.80;21.00;;;;;;;-12.01;76.26;102362.30;129882;1259;115331;-62
2024/01/09 03:40:30;;;;;;;54.10;21.40;;;;;;;-12.01;76.05;102365.63;129929;1259;114793;-63
2024/01/09 03:43:32;;;;;;;49.70;22.40;;;;;;;-12.00;76.16;102371.48;129947;1259;114812;-63
2024/01/09 03:46:34;;;;;;;28.00;11.30;;;;;;;-12.00;76.32;102368.47;129838;1257;114805;-62
2024/01/09 03:49:37;;;;;;;50.80;20.90;;;;;;;-12.01;76.12;102367.52;129974;1254;115135;-63
2024/01/09 03:52:39;;;;;;;54.60;20.80;;;;;;;-12.02;76.45;102361.92;129935;1257;114734;-63
2024/01/09 03:55:41;;;;;;;43.50;18.50;;;;;;;-12.00;76.22;102367.41;129887;1259;114770;-64
2024/01/09 03:58:44;;;;;;;52.80;22.30;;;;;;;-12.01;76.15;102371.48;130051;1259;115278;-62
2024/01/09 04:01:46;;;;;;;48.60;20.40;;;;;;;-12.02;76.26;102373.80;129768;1259;114708;-63
2024/01/09 04:04:48;;;;;;;47.00;20.40;;;;;;;-12.03;76.03;102373.16;129951;1277;115189;-63
2024/01/09 04:07:50;;;;;;;48.70;21.20;;;;;;;-12.04;76.08;102367.59;129979;1254;115713;-64
2024/01/09 04:10:52;;;;;;;47.10;21.40;;;;;;;-12.05;75.88;102370.31;129541;1257;129690;-63
2024/01/09 04:13:54;;;;;;;46.70;20.60;;;;;;;-12.06;75.95;102373.35;129966;1254;115314;-62
2024/01/09 04:16:56;;;;;;;46.70;20.90;;;;;;;-12.07;75.90;102374.98;130137;1260;114705;-62
2024/01/09 04:19:58;;;;;;;43.30;19.00;;;;;;;-12.08;76.04;102376.46;129601;1264;114898;-62
2024/01/09 04:23:00;;;;;;;43.10;18.70;;;;;;;-12.09;76.06;102383.41;129993;1258;114617;-62
2024/01/09 04:26:02;;;;;;;44.30;18.50;;;;;;;-12.09;76.03;102381.08;130002;1254;115320;-62
2024/01/09 04:29:05;;;;;;;41.30;18.80;;;;;;;-12.10;76.16;102379.60;129899;1256;114750;-62
2024/01/09 04:32:07;;;;;;;55.20;22.90;;;;;;;-12.10;76.11;102388.67;129913;1270;114883;-61
2024/01/09 04:35:09;;;;;;;48.20;19.80;;;;;;;-12.11;76.08;102384.88;129987;1258;114738;-61
2024/01/09 04:38:11;;;;;;;44.40;19.20;;;;;;;-12.11;76.09;102385.33;129873;1277;114741;-61
2024/01/09 04:41:17;;;;;;;47.90;21.40;;;;;;;-12.13;76.11;102387.45;129925;1258;114718;-62
2024/01/09 04:44:19;;;;;;;61.60;23.00;;;;;;;-12.13;76.32;102386.44;129657;1258;116561;-62
2024/01/09 04:47:21;;;;;;;57.60;23.70;;;;;;;-12.13;76.13;102390.22;129894;1260;114701;-61
2024/01/09 04:50:24;;;;;;;62.20;25.50;;;;;;;-12.13;76.09;102386.21;129934;1277;114818;-62
2024/01/09 04:53:26;;;;;;;74.60;28.70;;;;;;;-12.13;76.13;102393.20;129646;1263;128388;-62
2024/01/09 04:56:28;;;;;;;83.40;31.10;;;;;;;-12.13;76.09;102390.73;130023;1259;114811;-61
2024/01/09 04:59:31;;;;;;;67.20;25.70;;;;;;;-12.15;76.33;102395.94;130001;1256;114753;-62
2024/01/09 05:02:33;;;;;;;68.90;26.50;;;;;;;-12.17;76.30;102400.73;129970;1255;114731;-63
2024/01/09 05:05:35;;;;;;;60.80;25.80;;;;;;;-12.20;76.14;102406.05;129641;1259;114994;-60
2024/01/09 05:08:37;;;;;;;57.20;22.60;;;;;;;-12.22;76.17;102407.61;130073;1259;114642;-61
2024/01/09 05:11:39;;;;;;;48.70;20.40;;;;;;;-12.25;76.33;102408.59;130075;1269;114808;-62
2024/01/09 05:14:41;;;;;;;46.10;20.30;;;;;;;-12.26;76.26;102414.18;130049;1260;128351;-63
2024/01/09 05:17:43;;;;;;;50.50;20.20;;;;;;;-12.27;76.50;102413.74;129759;1257;114782;-62
2024/01/09 05:20:46;;;;;;;52.00;20.80;;;;;;;-12.27;76.54;102408.95;130045;1259;114824;-62
2024/01/09 05:23:49;;;;;;;46.00;19.80;;;;;;;-12.25;76.59;102408.91;130010;1257;114844;-63
2024/01/09 05:26:51;;;;;;;43.10;18.90;;;;;;;-12.25;76.53;102403.74;129626;1262;114865;-63
2024/01/09 05:29:53;;;;;;;49.10;20.00;;;;;;;-12.26;76.43;102409.74;129882;1277;114834;-63
2024/01/09 05:32:55;;;;;;;38.40;18.50;;;;;;;-12.26;76.38;102407.10;129953;1256;114738;-63
2024/01/09 05:35:58;;;;;;;56.00;22.30;;;;;;;-12.29;76.42;102412.05;129853;1267;128766;-62
2024/01/09 05:39:02;;;;;;;93.00;49.20;;;;;;;-12.30;76.47;102414.41;129964;1259;114707;-64
2024/01/09 05:42:04;;;;;;;60.60;24.80;;;;;;;-12.29;76.57;102414.14;129998;1258;114742;-62
2024/01/09 05:45:07;;;;;;;70.70;33.10;;;;;;;-12.26;76.70;102422.30;130035;1277;114775;-62
2024/01/09 05:48:09;;;;;;;38.80;18.30;;;;;;;-12.27;76.40;102424.09;129937;1256;115238;-62
2024/01/09 05:51:11;;;;;;;51.40;23.40;;;;;;;-12.28;76.53;102426.26;130000;1269;115086;-62
2024/01/09 05:54:13;;;;;;;58.30;25.50;;;;;;;-12.31;76.61;102432.08;129535;1259;128509;-62
2024/01/09 05:57:15;;;;;;;54.40;24.20;;;;;;;-12.30;76.49;102434.55;129929;1259;114808;-62
2024/01/09 06:00:18;;;;;;;60.00;28.90;;;;;;;-12.29;76.53;102436.02;130023;1274;115262;-62
2024/01/09 06:03:20;;;;;;;53.40;25.00;;;;;;;-12.27;76.58;102441.29;129659;1256;114773;-62
2024/01/09 06:06:23;;;;;;;53.50;24.20;;;;;;;-12.27;76.56;102444.24;129877;1271;114696;-62
2024/01/09 06:09:25;;;;;;;79.60;31.30;;;;;;;-12.26;76.60;102446.75;129937;1275;114796;-63
2024/01/09 06:12:28;;;;;;;63.90;26.60;;;;;;;-12.27;76.57;102448.23;129921;1277;114958;-63
2024/01/09 06:15:29;;;;;;;63.20;27.80;;;;;;;-12.28;76.67;102449.67;129880;1259;128640;-62
2024/01/09 06:18:32;;;;;;;58.20;27.10;;;;;;;-12.28;76.59;102448.27;130029;1257;114752;-62
2024/01/09 06:21:34;;;;;;;32.50;16.70;;;;;;;-12.27;76.72;102455.26;129937;1257;114817;-62
2024/01/09 06:24:37;;;;;;;56.20;22.60;;;;;;;-12.28;76.49;102456.40;129946;1259;114719;-63
2024/01/09 06:27:39;;;;;;;53.20;24.30;;;;;;;-12.30;76.55;102466.19;129597;1255;116361;-62
2024/01/09 06:30:41;;;;;;;48.70;24.80;;;;;;;-12.31;76.55;102466.98;129952;1271;115013;-64
2024/01/09 06:33:44;;;;;;;48.70;22.80;;;;;;;-12.30;76.60;102464.00;130015;1277;115100;-62
2024/01/09 06:36:46;;;;;;;46.40;20.00;;;;;;;-12.31;76.42;102460.63;129529;1265;128090;-62
2024/01/09 06:39:49;;;;;;;56.90;22.60;;;;;;;-12.32;76.58;102463.86;129905;1278;114735;-62
2024/01/09 06:42:51;;;;;;;45.90;22.60;;;;;;;-12.33;76.47;102468.92;130051;1259;114705;-62
2024/01/09 06:45:53;;;;;;;46.20;22.40;;;;;;;-12.32;76.58;102472.74;130133;1259;114751;-63
2024/01/09 06:48:55;;;;;;;55.60;23.60;;;;;;;-12.35;76.63;102475.47;129855;1259;114734;-62
2024/01/09 06:51:58;;;;;;;47.60;22.20;;;;;;;-12.35;76.63;102472.16;129859;1278;114688;-63
2024/01/09 06:55:00;;;;;;;49.30;24.00;;;;;;;-12.33;76.73;102472.13;129998;1278;114812;-61
2024/01/09 06:58:03;;;;;;;54.60;21.90;;;;;;;-12.31;76.81;102473.18;129651;1278;127148;-61
2024/01/09 07:01:06;;;;;;;57.80;22.50;;;;;;;-12.28;76.85;102473.94;129797;1259;114683;-62
2024/01/09 07:04:08;;;;;;;44.00;20.70;;;;;;;-12.28;76.59;102478.79;129799;1259;115081;-62
2024/01/09 07:07:12;;;;;;;47.10;20.90;;;;;;;-12.26;76.89;102480.13;130092;1269;114993;-62
2024/01/09 07:10:15;;;;;;;59.30;24.90;;;;;;;-12.25;76.93;102483.35;129864;1261;114882;-62
2024/01/09 07:13:17;;;;;;;71.50;29.90;;;;;;;-12.24;76.68;102484.40;129891;1255;114707;-62
2024/01/09 07:16:19;;;;;;;58.20;23.10;;;;;;;-12.21;77.00;102480.71;129805;1259;114728;-62
2024/01/09 07:19:21;;;;;;;70.50;27.20;;;;;;;-12.19;76.89;102484.77;129744;1257;114857;-63
2024/01/09 07:22:23;;;;;;;45.60;22.10;;;;;;;-12.17;76.90;102484.28;129887;1259;114826;-64
2024/01/09 07:25:25;;;;;;;56.40;25.80;;;;;;;-12.16;76.89;102484.04;130205;1259;114757;-63
2024/01/09 07:28:28;;;;;;;64.80;27.40;;;;;;;-12.15;76.96;102480.48;130102;1272;114792;-63
2024/01/09 07:31:30;;;;;;;71.70;28.50;;;;;;;-12.09;77.21;102479.73;129707;1278;115254;-62
2024/01/09 07:34:32;;;;;;;71.70;29.20;;;;;;;-12.01;77.17;102477.59;129766;1258;115177;-63
2024/01/09 07:37:35;;;;;;;34.90;15.00;;;;;;;-11.91;77.18;102475.17;129624;1262;114949;-63
2024/01/09 07:40:37;;;;;;;45.10;19.20;;;;;;;-11.82;77.14;102471.94;129912;1260;115609;-63
2024/01/09 07:43:39;;;;;;;51.00;20.80;;;;;;;-11.72;77.33;102475.45;129636;1262;114864;-63
2024/01/09 07:46:42;;;;;;;55.70;21.70;;;;;;;-11.61;77.39;102478.02;129870;1262;114652;-63
2024/01/09 07:49:44;;;;;;;49.40;20.10;;;;;;;-11.50;77.35;102474.54;129751;1275;114834;-63
2024/01/09 07:52:48;;;;;;;47.70;23.20;;;;;;;-11.36;77.40;102480.22;129659;1263;115215;-63
2024/01/09 07:55:50;;;;;;;49.60;21.70;;;;;;;-11.22;77.26;102484.35;129687;1256;114742;-63
2024/01/09 07:58:52;;;;;;;50.80;21.90;;;;;;;-11.07;77.57;102486.98;129810;1259;114697;-63
2024/01/09 08:01:55;;;;;;;46.10;21.20;;;;;;;-10.89;77.55;102486.75;129676;1259;114709;-67
2024/01/09 08:04:57;;;;;;;17.80;8.40;;;;;;;-10.65;77.56;102486.73;130024;1257;114758;-65
2024/01/09 08:07:59;;;;;;;59.40;22.40;;;;;;;-10.45;77.45;102484.52;130172;1272;114717;-66
2024/01/09 08:11:01;;;;;;;27.90;13.90;;;;;;;-10.26;77.14;102492.25;130047;1259;114808;-65
2024/01/09 08:14:03;;;;;;;43.90;20.20;;;;;;;-10.11;77.23;102488.64;129789;1260;115326;-66
2024/01/09 08:17:05;;;;;;;45.70;19.60;;;;;;;-9.99;76.85;102486.19;130076;1269;114897;-65
2024/01/09 08:20:07;;;;;;;18.90;10.50;;;;;;;-9.89;76.79;102491.02;130305;1259;114728;-65
2024/01/09 08:23:10;;;;;;;43.90;20.10;;;;;;;-9.82;76.43;102482.29;130216;1259;114726;-68
2024/01/09 08:26:13;;;;;;;53.10;21.90;;;;;;;-9.75;76.35;102479.17;129981;1256;115199;-66
2024/01/09 08:29:16;;;;;;;46.70;19.40;;;;;;;-9.64;76.44;102478.69;130127;1256;115410;-67
2024/01/09 08:32:18;;;;;;;46.00;21.10;;;;;;;-9.57;76.09;102478.31;130030;1261;115158;-65
2024/01/09 08:35:20;;;;;;;37.70;18.00;;;;;;;-9.53;75.98;102476.88;130263;1257;114841;-65
2024/01/09 08:38:22;;;;;;;48.00;21.50;;;;;;;-9.45;75.82;102476.84;129945;1254;128216;-65
2024/01/09 08:41:25;;;;;;;77.00;30.70;;;;;;;-9.39;75.80;102474.00;130241;1257;114700;-67
2024/01/09 08:44:27;;;;;;;38.50;18.90;;;;;;;-9.32;75.89;102477.21;130371;1257;115392;-66
2024/01/09 08:47:30;;;;;;;60.70;26.80;;;;;;;-9.24;75.79;102480.84;130310;1256;114728;-65
2024/01/09 08:50:33;;;;;;;36.60;17.60;;;;;;;-9.13;75.62;102481.39;130096;1262;114860;-65
2024/01/09 08:53:37;;;;;;;33.50;13.20;;;;;;;-9.09;75.09;102479.59;130095;1272;114692;-66
2024/01/09 08:56:42;;;;;;;36.90;17.60;;;;;;;-9.10;74.69;102482.79;129997;1262;127606;-64
2024/01/09 08:59:46;;;;;;;21.80;8.20;;;;;;;-9.11;74.96;102482.37;130062;1259;114847;-69
2024/01/09 09:02:48;;;;;;;40.20;17.40;;;;;;;-9.09;74.51;102483.02;130149;1259;114722;-66
2024/01/09 09:05:50;;;;;;;30.10;15.70;;;;;;;-9.10;74.69;102483.34;130248;1260;114626;-64
2024/01/09 09:08:52;;;;;;;37.40;18.00;;;;;;;-9.07;74.55;102478.66;129528;1262;116262;-68
2024/01/09 09:11:54;;;;;;;45.50;19.60;;;;;;;-9.03;74.39;102481.36;130293;1273;114703;-69
2024/01/09 09:14:56;;;;;;;44.00;19.90;;;;;;;-9.05;74.53;102479.67;130383;1277;114635;-65
2024/01/09 09:17:58;;;;;;;51.70;23.80;;;;;;;-9.00;74.94;102479.30;129987;1262;127847;-69
2024/01/09 09:21:04;;;;;;;47.50;21.10;;;;;;;-8.90;74.73;102481.32;130220;1259;115075;-67
2024/01/09 09:24:13;;;;;;;42.80;20.10;;;;;;;-8.82;75.03;102478.91;129914;1262;114774;-68
2024/01/09 09:27:15;;;;;;;41.10;18.70;;;;;;;-8.75;74.63;102478.66;130234;1260;114843;-65
2024/01/09 09:30:17;;;;;;;46.70;22.50;;;;;;;-8.68;74.50;102476.17;129892;1260;114731;-65
2024/01/09 09:33:19;;;;;;;58.20;25.60;;;;;;;-8.60;74.82;102475.46;130339;1272;114663;-69
2024/01/09 09:36:21;;;;;;;53.50;23.10;;;;;;;-8.56;74.04;102477.27;130264;1259;114756;-68
2024/01/09 09:39:23;;;;;;;21.10;9.50;;;;;;;-8.51;74.33;102478.42;130307;1259;114774;-65
2024/01/09 09:42:26;;;;;;;35.90;16.10;;;;;;;-8.51;73.42;102479.17;130298;1257;114707;-66
2024/01/09 09:45:32;;;;;;;37.30;16.90;;;;;;;-8.52;73.64;102479.95;130240;1254;114631;-65
2024/01/09 09:48:34;;;;;;;18.60;8.90;;;;;;;-8.50;73.13;102481.29;129946;1277;114910;-66
2024/01/09 09:51:37;;;;;;;25.90;11.50;;;;;;;-8.52;72.97;102485.63;130228;1259;115523;-66
2024/01/09 09:54:39;;;;;;;36.80;17.30;;;;;;;-8.53;72.23;102483.00;130249;1259;114815;-68
2024/01/09 09:57:41;;;;;;;59.50;25.90;;;;;;;-8.53;72.66;102481.77;130327;1259;114624;-67
2024/01/09 10:00:44;;;;;;;58.00;24.80;;;;;;;-8.48;73.29;102484.51;130320;1259;115492;-67
2024/01/09 10:03:51;;;;;;;35.50;15.30;;;;;;;-8.42;73.71;102484.89;130213;1259;114708;-68
2024/01/09 10:06:58;;;;;;;17.80;7.50;;;;;;;-8.43;72.98;102483.80;130014;1262;114979;-68
2024/01/09 10:10:05;;;;;;;21.80;8.80;;;;;;;-8.45;72.20;102484.86;129942;1265;115017;-66
2024/01/09 10:13:07;;;;;;;39.80;17.00;;;;;;;-8.52;72.20;102480.45;130368;1259;128928;-65
2024/01/09 10:16:10;;;;;;;30.10;13.40;;;;;;;-8.51;72.32;102473.57;130285;1259;114831;-66
2024/01/09 10:19:13;;;;;;;35.60;17.20;;;;;;;-8.49;72.66;102472.52;130340;1256;114816;-65
2024/01/09 10:22:15;;;;;;;35.70;15.70;;;;;;;-8.41;72.61;102465.39;130233;1258;115245;-65
2024/01/09 10:25:17;;;;;;;15.80;7.40;;;;;;;-8.37;72.87;102468.17;130350;1275;114858;-66
2024/01/09 10:28:19;;;;;;;30.80;15.70;;;;;;;-8.36;71.90;102464.80;129959;1263;114825;-65
2024/01/09 10:31:21;;;;;;;37.90;16.50;;;;;;;-8.39;71.88;102463.06;130297;1259;114790;-65
2024/01/09 10:34:26;;;;;;;15.20;7.60;;;;;;;-8.43;71.76;102462.61;129757;1255;128841;-68
2024/01/09 10:37:29;;;;;;;14.80;7.90;;;;;;;-8.43;71.93;102457.23;130119;1259;114728;-67
2024/01/09 10:40:31;;;;;;;38.70;17.80;;;;;;;-8.45;71.46;102455.53;129811;1259;114707;-68
2024/01/09 10:43:35;;;;;;;25.80;11.40;;;;;;;-8.45;71.98;102448.50;130111;1259;115273;-66
2024/01/09 10:46:37;;;;;;;44.00;19.40;;;;;;;-8.42;71.76;102440.88;130193;1259;114828;-66
2024/01/09 10:49:43;;;;;;;20.30;10.10;;;;;;;-8.31;72.21;102438.38;130164;1259;114815;-68
2024/01/09 10:52:47;;;;;;;18.90;10.30;;;;;;;-8.23;72.16;102438.36;130077;1260;128187;-66
2024/01/09 10:55:49;;;;;;;45.40;17.60;;;;;;;-8.21;71.72;102435.05;129943;1265;114819;-68
2024/01/09 10:58:51;;;;;;;18.00;8.40;;;;;;;-8.15;72.52;102435.41;130180;1276;114807;-66
2024/01/09 11:01:53;;;;;;;43.40;18.10;;;;;;;-8.07;72.12;102434.17;130385;1256;114812;-72
2024/01/09 11:04:57;;;;;;;43.80;16.70;;;;;;;-7.99;72.26;102429.42;130123;1256;114764;-68
2024/01/09 11:08:00;;;;;;;21.50;10.20;;;;;;;-7.91;71.87;102430.23;130125;1258;115164;-67
2024/01/09 11:11:13;;;;;;;23.30;9.70;;;;;;;-7.91;71.58;102427.63;130029;1261;114980;-65
2024/01/09 11:14:16;;;;;;;44.30;18.20;;;;;;;-7.91;71.57;102429.19;130071;1256;114976;-67
2024/01/09 11:17:19;;;;;;;40.70;19.10;;;;;;;-7.88;71.94;102423.67;130203;1256;114807;-66
2024/01/09 11:20:22;;;;;;;23.50;10.90;;;;;;;-7.82;71.23;102423.73;130310;1257;114731;-65
2024/01/09 11:23:42;;;;;;;45.30;19.60;;;;;;;-7.78;71.80;102418.21;129497;1259;115003;-64
2024/01/09 11:27:08;;;;;;;36.40;17.10;;;;;;;-7.71;71.90;102408.74;129400;1276;128669;-66
2024/01/09 11:30:14;;;;;;;21.40;8.50;;;;;;;-7.66;71.26;102401.91;130010;1272;114891;-66
2024/01/09 11:33:32;;;;;;;36.10;15.60;;;;;;;-7.65;71.16;102401.97;130356;1262;114690;-67
2024/01/09 11:36:34;;;;;;;37.20;17.60;;;;;;;-7.61;71.11;102401.35;129922;1259;114744;-69
2024/01/09 11:39:38;;;;;;;21.50;11.00;;;;;;;-7.54;71.58;102400.88;130466;1260;114738;-66
2024/01/09 11:42:48;;;;;;;43.20;20.50;;;;;;;-7.51;71.23;102399.48;130440;1261;128027;-66
2024/01/09 11:45:53;;;;;;;32.00;15.40;;;;;;;-7.44;71.74;102402.11;129537;1262;115187;-68
2024/01/09 11:48:55;;;;;;;36.00;17.40;;;;;;;-7.42;71.33;102401.39;130330;1262;115157;-67
2024/01/09 11:51:57;;;;;;;38.20;16.70;;;;;;;-7.43;71.00;102395.45;129763;1275;115065;-65
2024/01/09 11:54:59;;;;;;;25.60;12.30;;;;;;;-7.41;71.14;102392.94;130364;1259;114800;-66
2024/01/09 11:58:02;;;;;;;40.40;17.60;;;;;;;-7.39;70.96;102393.22;130132;1264;114892;-66
2024/01/09 12:01:05;;;;;;;33.80;16.30;;;;;;;-7.37;70.49;102391.98;130373;1259;115337;-65
2024/01/09 12:04:07;;;;;;;29.40;13.00;;;;;;;-7.38;70.52;102389.67;130363;1269;114728;-65
2024/01/09 12:07:11;;;;;;;34.00;14.90;;;;;;;-7.37;70.33;102386.96;130325;1258;114764;-64
2024/01/09 12:10:15;;;;;;;20.20;9.40;;;;;;;-7.34;70.28;102384.13;129973;1260;114856;-66
2024/01/09 12:13:17;;;;;;;27.80;12.20;;;;;;;-7.33;70.04;102375.70;129989;1260;114829;-63
2024/01/09 12:16:21;;;;;;;28.00;13.00;;;;;;;-7.35;69.68;102377.30;129815;1258;114695;-60
2024/01/09 12:19:23;;;;;;;29.70;13.30;;;;;;;-7.33;69.65;102376.20;129633;1260;127904;-61
2024/01/09 12:22:26;;;;;;;31.10;14.10;;;;;;;-7.27;69.67;102381.91;129912;1259;115242;-62
2024/01/09 12:25:28;;;;;;;34.60;13.40;;;;;;;-7.22;70.40;102380.98;129925;1260;114820;-60
2024/01/09 12:28:33;;;;;;;33.90;17.50;;;;;;;-7.21;69.95;102380.74;130028;1275;114918;-60
2024/01/09 12:31:36;;;;;;;28.10;13.10;;;;;;;-7.21;70.14;102374.66;129942;1267;114716;-61
2024/01/09 12:34:39;;;;;;;27.40;11.70;;;;;;;-7.21;69.80;102370.13;129631;1271;114767;-61
2024/01/09 12:37:43;;;;;;;47.10;22.80;;;;;;;-7.21;70.02;102365.08;129868;1279;114869;-60
2024/01/09 12:40:45;;;;;;;31.50;14.40;;;;;;;-7.16;69.97;102362.06;129844;1258;114793;-61
2024/01/09 12:43:48;;;;;;;50.50;22.50;;;;;;;-7.19;69.69;102361.90;129764;1261;114790;-61
2024/01/09 12:46:51;;;;;;;30.90;13.80;;;;;;;-7.24;69.39;102365.10;129928;1278;114868;-60
2024/01/09 12:49:53;;;;;;;40.00;16.20;;;;;;;-7.24;70.01;102366.66;129877;1278;115202;-61
2024/01/09 12:52:57;;;;;;;28.50;13.80;;;;;;;-7.20;69.97;102368.45;129488;1278;128743;-61
2024/01/09 12:56:13;;;;;;;45.30;18.20;;;;;;;-7.20;69.44;102364.45;129791;1262;114837;-61
2024/01/09 12:59:21;;;;;;;28.30;13.50;;;;;;;-7.23;69.47;102366.53;129599;1257;114796;-61
2024/01/09 13:02:23;;;;;;;31.20;14.60;;;;;;;-7.23;69.81;102362.90;130012;1278;114811;-61
2024/01/09 13:05:25;;;;;;;44.80;19.30;;;;;;;-7.22;69.72;102360.20;130102;1259;115420;-60
2024/01/09 13:08:29;;;;;;;41.60;18.80;;;;;;;-7.17;69.75;102352.80;130034;1261;114823;-61
2024/01/09 13:11:31;;;;;;;35.50;15.50;;;;;;;-7.11;70.00;102352.25;129604;1264;127900;-61
2024/01/09 13:14:33;;;;;;;36.70;16.90;;;;;;;-7.07;69.67;102352.31;129883;1260;114723;-61
2024/01/09 13:17:35;;;;;;;31.80;14.40;;;;;;;-7.06;69.43;102348.06;129905;1259;115609;-60
2024/01/09 13:20:38;;;;;;;27.70;13.50;;;;;;;-7.02;69.59;102347.77;129541;1262;114974;-61
2024/01/09 13:23:41;;;;;;;36.20;14.00;;;;;;;-6.98;69.15;102347.91;129904;1258;114797;-60
2024/01/09 13:26:43;;;;;;;29.10;14.30;;;;;;;-6.95;69.48;102346.21;129908;1269;114632;-61